createdAt,value
2022-08-31T00:00:19.618Z,6.40
2022-08-31T00:04:11.839Z,6.70
2022-08-31T00:07:50.080Z,5.70
2022-08-31T00:11:28.541Z,6.00
2022-08-31T00:15:07.639Z,5.90
2022-08-31T00:18:45.529Z,5.20
2022-08-31T00:22:22.890Z,5.00
2022-08-31T00:26:00.743Z,5.20
2022-08-31T00:29:38.034Z,5.00
2022-08-31T00:33:15.657Z,4.70
2022-08-31T00:36:53.473Z,5.20
2022-08-31T00:40:32.721Z,5.30
2022-08-31T00:44:15.407Z,4.70
2022-08-31T00:47:54.241Z,5.30
2022-08-31T00:51:39.518Z,3.70
2022-08-31T00:55:37.348Z,5.60
2022-08-31T00:59:17.215Z,3.80
2022-08-31T01:02:56.518Z,3.70
2022-08-31T01:06:34.391Z,3.90
2022-08-31T01:10:11.727Z,3.50
2022-08-31T01:13:51.163Z,3.70
2022-08-31T01:17:29.358Z,3.60
2022-08-31T01:21:15.657Z,3.90
2022-08-31T01:24:55.279Z,3.40
2022-08-31T01:28:33.520Z,3.80
2022-08-31T01:32:11.114Z,3.80
2022-08-31T01:35:48.326Z,4.00
2022-08-31T01:39:25.635Z,4.10
2022-08-31T01:43:02.986Z,3.80
2022-08-31T01:46:40.724Z,3.80
2022-08-31T01:50:19.781Z,4.40
2022-08-31T01:53:57.099Z,4.00
2022-08-31T01:57:35.226Z,3.70
2022-08-31T02:01:32.733Z,3.70
2022-08-31T02:05:11.457Z,3.50
2022-08-31T02:08:49.012Z,2.90
2022-08-31T02:12:26.013Z,3.30
2022-08-31T02:16:05.874Z,3.80
2022-08-31T02:19:42.966Z,3.40
2022-08-31T02:23:20.669Z,4.20
2022-08-31T02:26:57.813Z,3.90
2022-08-31T02:30:35.266Z,3.50
2022-08-31T02:34:12.756Z,3.60
2022-08-31T02:37:49.661Z,3.50
2022-08-31T02:41:30.149Z,3.50
2022-08-31T02:45:06.330Z,3.00
2022-08-31T02:48:43.906Z,3.60
2022-08-31T02:52:21.784Z,3.40
2022-08-31T02:55:59.516Z,3.70
2022-08-31T02:59:38.295Z,3.70
2022-08-31T03:03:16.262Z,4.00
2022-08-31T03:06:53.273Z,3.60
2022-08-31T03:10:31.659Z,3.40
2022-08-31T03:14:09.631Z,3.50
2022-08-31T03:17:47.333Z,3.40
2022-08-31T03:21:24.366Z,3.90
2022-08-31T03:25:02.027Z,4.00
2022-08-31T03:28:39.548Z,3.80
2022-08-31T03:32:17.932Z,3.80
2022-08-31T03:35:55.541Z,3.40
2022-08-31T03:39:32.989Z,4.60
2022-08-31T03:43:12.010Z,4.50
2022-08-31T03:46:53.022Z,5.10
2022-08-31T03:50:30.786Z,4.60
2022-08-31T03:54:08.000Z,3.80
2022-08-31T03:57:45.374Z,3.70
2022-08-31T04:01:23.829Z,3.80
2022-08-31T04:05:21.141Z,4.20
2022-08-31T04:08:38.795Z,4.40
2022-08-31T04:12:18.144Z,4.70
2022-08-31T04:16:00.604Z,4.50
2022-08-31T04:19:38.769Z,3.90
2022-08-31T04:23:15.641Z,4.00
2022-08-31T04:26:53.213Z,3.90
2022-08-31T04:30:30.549Z,3.90
2022-08-31T04:34:08.555Z,3.90
2022-08-31T04:37:47.077Z,3.90
2022-08-31T04:41:28.093Z,5.10
2022-08-31T04:45:06.206Z,4.30
2022-08-31T04:48:44.188Z,4.00
2022-08-31T04:52:28.055Z,4.90
2022-08-31T04:56:07.036Z,3.90
2022-08-31T04:59:44.802Z,4.20
2022-08-31T05:03:22.252Z,3.90
2022-08-31T05:07:00.428Z,4.50
2022-08-31T05:10:39.622Z,4.30
2022-08-31T05:14:18.003Z,3.70
2022-08-31T05:17:55.165Z,4.20
2022-08-31T05:21:35.785Z,4.30
2022-08-31T05:25:13.423Z,4.90
2022-08-31T05:28:51.106Z,4.20
2022-08-31T05:32:28.568Z,3.60
2022-08-31T05:36:07.986Z,4.10
2022-08-31T05:39:48.191Z,4.20
2022-08-31T05:43:25.973Z,3.60
2022-08-31T05:47:07.101Z,3.30
2022-08-31T05:50:44.965Z,4.00
2022-08-31T05:54:22.117Z,4.20
2022-08-31T05:58:00.286Z,4.10
2022-08-31T06:01:41.457Z,4.00
2022-08-31T06:05:20.376Z,3.90
2022-08-31T06:08:59.175Z,4.20
2022-08-31T06:12:37.935Z,4.40
2022-08-31T06:16:15.908Z,4.50
2022-08-31T06:19:53.266Z,4.20
2022-08-31T06:23:30.193Z,4.50
2022-08-31T06:27:07.101Z,5.20
2022-08-31T06:30:54.966Z,4.60
2022-08-31T06:34:32.721Z,5.20
2022-08-31T06:38:10.572Z,4.70
2022-08-31T06:41:48.311Z,5.40
2022-08-31T06:45:25.669Z,5.10
2022-08-31T06:49:04.884Z,4.60
2022-08-31T06:52:46.399Z,4.90
2022-08-31T06:56:26.149Z,4.50
2022-08-31T07:00:06.088Z,4.90
2022-08-31T07:03:46.169Z,4.70
2022-08-31T07:07:23.212Z,4.80
2022-08-31T07:11:01.185Z,4.40
2022-08-31T07:14:39.175Z,4.70
2022-08-31T07:18:16.192Z,5.00
2022-08-31T07:21:57.423Z,4.60
2022-08-31T07:25:37.310Z,5.20
2022-08-31T07:29:18.892Z,4.80
2022-08-31T07:32:56.814Z,4.10
2022-08-31T07:36:35.293Z,5.10
2022-08-31T07:40:12.361Z,4.70
2022-08-31T07:43:49.914Z,4.40
2022-08-31T07:47:29.091Z,4.50
2022-08-31T07:51:06.773Z,4.20
2022-08-31T07:54:44.512Z,4.40
2022-08-31T07:58:21.503Z,4.50
2022-08-31T08:02:01.027Z,4.80
2022-08-31T08:05:40.736Z,4.60
2022-08-31T08:09:25.716Z,4.30
2022-08-31T08:13:05.002Z,4.70
2022-08-31T08:16:43.294Z,5.20
2022-08-31T08:20:37.239Z,5.10
2022-08-31T08:24:16.271Z,5.20
2022-08-31T08:27:54.959Z,5.80
2022-08-31T08:31:33.789Z,4.90
2022-08-31T08:35:12.548Z,5.10
2022-08-31T08:38:52.533Z,5.00
2022-08-31T08:42:31.746Z,5.80
2022-08-31T08:46:31.672Z,5.20
2022-08-31T08:50:10.101Z,4.20
2022-08-31T08:53:54.084Z,4.40
2022-08-31T08:57:39.830Z,4.30
2022-08-31T09:01:25.166Z,3.90
2022-08-31T09:05:09.643Z,4.50
2022-08-31T09:08:50.768Z,3.40
2022-08-31T09:12:58.716Z,4.20
2022-08-31T09:17:06.819Z,4.70
2022-08-31T09:21:04.805Z,4.70
2022-08-31T09:24:42.655Z,5.50
2022-08-31T09:28:37.912Z,5.50
2022-08-31T09:32:22.326Z,5.90
2022-08-31T09:36:22.582Z,6.00
2022-08-31T09:40:23.719Z,5.40
2022-08-31T09:44:26.548Z,4.80
2022-08-31T09:48:08.303Z,5.00
2022-08-31T09:51:46.117Z,5.60
2022-08-31T09:55:27.768Z,5.60
2022-08-31T09:59:05.866Z,5.20
2022-08-31T10:02:45.700Z,5.30
2022-08-31T10:06:39.326Z,5.50
2022-08-31T10:10:31.696Z,5.80
2022-08-31T10:14:25.476Z,5.80
2022-08-31T10:18:15.495Z,5.40
2022-08-31T10:22:10.775Z,5.90
2022-08-31T10:25:58.040Z,6.60
2022-08-31T10:29:44.002Z,6.70
2022-08-31T10:33:53.434Z,5.40
2022-08-31T10:37:52.151Z,5.10
2022-08-31T10:41:35.548Z,5.60
2022-08-31T10:45:18.669Z,5.90
2022-08-31T10:48:58.358Z,4.60
2022-08-31T10:52:51.953Z,4.30
2022-08-31T10:56:43.606Z,4.50
2022-08-31T11:00:25.690Z,4.10
2022-08-31T11:04:09.743Z,4.50
2022-08-31T11:07:57.923Z,4.10
2022-08-31T11:11:48.772Z,3.60
2022-08-31T11:15:41.754Z,3.90
2022-08-31T11:19:32.428Z,3.90
2022-08-31T11:23:23.082Z,4.70
2022-08-31T11:27:09.186Z,4.30
2022-08-31T11:30:51.090Z,3.90
2022-08-31T11:34:40.123Z,4.30
2022-08-31T11:38:48.278Z,3.40
2022-08-31T11:42:29.247Z,3.40
2022-08-31T11:46:22.474Z,3.70
2022-08-31T11:50:51.791Z,3.50
2022-08-31T11:54:31.794Z,3.10
2022-08-31T11:58:18.487Z,3.10
2022-08-31T12:02:20.019Z,2.60
2022-08-31T12:05:57.703Z,3.20
2022-08-31T12:09:57.678Z,2.80
2022-08-31T12:13:55.496Z,2.60
2022-08-31T12:17:50.875Z,2.40
2022-08-31T12:21:52.296Z,2.60
2022-08-31T12:25:54.666Z,3.10
2022-08-31T12:29:36.118Z,2.40
2022-08-31T12:33:18.044Z,2.80
2022-08-31T12:36:57.023Z,2.90
2022-08-31T12:40:51.750Z,3.10
2022-08-31T12:44:34.409Z,3.90
2022-08-31T12:48:20.854Z,3.50
2022-08-31T12:52:23.256Z,4.10
2022-08-31T12:56:24.911Z,4.10
2022-08-31T13:00:21.864Z,4.20
2022-08-31T13:04:03.422Z,3.20
2022-08-31T13:07:41.111Z,3.80
2022-08-31T13:11:24.224Z,3.70
2022-08-31T13:15:04.656Z,3.50
2022-08-31T13:18:41.943Z,4.30
2022-08-31T13:22:33.609Z,3.30
2022-08-31T13:26:24.640Z,3.70
2022-08-31T13:30:16.052Z,4.00
2022-08-31T13:33:54.630Z,4.40
2022-08-31T13:37:38.518Z,4.00
2022-08-31T13:41:25.781Z,3.90
2022-08-31T13:45:06.692Z,3.50
2022-08-31T13:48:51.661Z,4.20
2022-08-31T13:52:31.902Z,4.40
2022-08-31T13:56:31.775Z,3.60
2022-08-31T14:00:32.161Z,4.00
2022-08-31T14:04:48.314Z,4.50
2022-08-31T14:08:28.084Z,4.50
2022-08-31T14:12:07.000Z,4.50
2022-08-31T14:16:00.855Z,3.90
2022-08-31T14:19:38.700Z,4.50
2022-08-31T14:23:25.890Z,3.40
2022-08-31T14:27:03.486Z,4.50
2022-08-31T14:30:41.777Z,5.10
2022-08-31T14:34:22.487Z,4.20
2022-08-31T14:38:00.492Z,3.50
2022-08-31T14:41:38.871Z,4.70
2022-08-31T14:45:18.597Z,4.80
2022-08-31T14:48:57.166Z,5.50
2022-08-31T14:52:37.706Z,4.10
2022-08-31T14:56:15.943Z,4.80
2022-08-31T14:59:58.153Z,4.70
2022-08-31T15:03:35.717Z,4.60
2022-08-31T15:07:14.998Z,4.90
2022-08-31T15:10:53.704Z,4.40
2022-08-31T15:14:31.184Z,4.30
2022-08-31T15:18:08.898Z,5.90
2022-08-31T15:21:52.275Z,5.40
2022-08-31T15:25:30.953Z,4.50
2022-08-31T15:29:08.009Z,5.10
2022-08-31T15:32:48.982Z,5.70
2022-08-31T15:36:28.320Z,5.40
2022-08-31T15:40:07.521Z,5.80
2022-08-31T15:43:45.629Z,6.00
2022-08-31T15:47:26.818Z,6.60
2022-08-31T15:51:03.965Z,6.90
2022-08-31T15:54:42.620Z,6.10
2022-08-31T15:58:24.638Z,6.00
2022-08-31T16:02:05.948Z,6.20
2022-08-31T16:05:44.021Z,5.70
2022-08-31T16:09:23.227Z,5.70
2022-08-31T16:13:00.695Z,7.00
2022-08-31T16:16:41.639Z,5.90
2022-08-31T16:20:20.057Z,6.70
2022-08-31T16:24:00.044Z,5.80
2022-08-31T16:27:37.464Z,7.50
2022-08-31T16:31:14.436Z,6.90
2022-08-31T16:34:52.220Z,5.60
2022-08-31T16:38:29.534Z,6.10
2022-08-31T16:42:09.086Z,6.90
2022-08-31T16:45:46.882Z,6.60
2022-08-31T16:49:24.069Z,6.10
2022-08-31T16:53:01.752Z,6.30
2022-08-31T16:56:42.588Z,5.80
2022-08-31T17:00:31.468Z,6.60
2022-08-31T17:04:34.798Z,7.10
2022-08-31T17:08:15.888Z,6.30
2022-08-31T17:12:00.449Z,6.20
2022-08-31T17:15:37.811Z,6.60
2022-08-31T17:19:18.275Z,6.50
2022-08-31T17:22:55.873Z,5.00
2022-08-31T17:26:34.332Z,5.10
2022-08-31T17:30:12.114Z,5.70
2022-08-31T17:33:50.550Z,6.20
2022-08-31T17:37:30.815Z,5.70
2022-08-31T17:41:09.962Z,7.20
2022-08-31T17:44:49.331Z,5.90
2022-08-31T17:48:27.377Z,5.80
2022-08-31T17:52:07.020Z,5.70
2022-08-31T17:55:53.478Z,6.10
2022-08-31T17:59:34.146Z,6.30
2022-08-31T18:03:11.665Z,6.90
2022-08-31T18:06:50.413Z,5.80
2022-08-31T18:10:28.354Z,6.30
2022-08-31T18:14:06.714Z,6.80
2022-08-31T18:17:44.804Z,6.20
2022-08-31T18:21:24.357Z,6.30
2022-08-31T18:25:02.392Z,6.30
2022-08-31T18:28:40.146Z,6.10
2022-08-31T18:32:17.607Z,6.30
2022-08-31T18:35:54.652Z,7.20
2022-08-31T18:39:51.952Z,5.90
2022-08-31T18:43:29.503Z,6.40
2022-08-31T18:47:10.499Z,6.20
2022-08-31T18:50:49.905Z,6.10
2022-08-31T18:54:27.119Z,5.80
2022-08-31T18:58:05.808Z,6.50
2022-08-31T19:01:45.375Z,7.00
2022-08-31T19:05:23.380Z,6.40
2022-08-31T19:09:01.038Z,6.80
2022-08-31T19:12:39.417Z,6.10
2022-08-31T19:16:24.175Z,5.80
2022-08-31T19:20:03.724Z,6.20
2022-08-31T19:23:41.922Z,6.90
2022-08-31T19:27:19.686Z,6.10
2022-08-31T19:30:56.940Z,6.90
2022-08-31T19:34:38.954Z,6.60
2022-08-31T19:38:16.255Z,5.90
2022-08-31T19:42:01.496Z,5.90
2022-08-31T19:45:43.733Z,5.40
2022-08-31T19:49:24.146Z,6.30
2022-08-31T19:53:02.972Z,6.10
2022-08-31T19:56:41.843Z,6.10
2022-08-31T20:00:20.092Z,6.50
2022-08-31T20:03:57.903Z,5.50
2022-08-31T20:07:35.823Z,5.70
2022-08-31T20:11:21.272Z,5.40
2022-08-31T20:14:59.180Z,5.70
2022-08-31T20:18:37.051Z,5.30
2022-08-31T20:22:14.914Z,5.70
2022-08-31T20:25:53.159Z,6.30
2022-08-31T20:29:33.359Z,5.60
2022-08-31T20:33:12.224Z,5.30
2022-08-31T20:36:52.116Z,5.80
2022-08-31T20:40:30.070Z,5.90
2022-08-31T20:44:12.160Z,5.50
2022-08-31T20:47:49.657Z,6.50
2022-08-31T20:51:27.778Z,6.20
2022-08-31T20:55:07.552Z,5.80
2022-08-31T20:58:46.443Z,6.50
2022-08-31T21:02:24.717Z,5.90
2022-08-31T21:06:08.808Z,6.30
2022-08-31T21:09:47.350Z,5.90
2022-08-31T21:13:25.279Z,6.30
2022-08-31T21:17:05.810Z,6.20
2022-08-31T21:20:44.816Z,6.40
2022-08-31T21:24:22.911Z,5.90
2022-08-31T21:28:00.981Z,7.80
2022-08-31T21:31:43.704Z,5.80
2022-08-31T21:35:27.159Z,5.10
2022-08-31T21:39:09.012Z,5.10
2022-08-31T21:42:49.445Z,5.80
2022-08-31T21:46:26.571Z,5.00
2022-08-31T21:50:05.377Z,5.10
2022-08-31T21:53:45.902Z,4.90
2022-08-31T21:57:23.567Z,6.40
2022-08-31T22:01:02.771Z,5.70
2022-08-31T22:04:43.720Z,5.90
2022-08-31T22:08:22.138Z,6.00
2022-08-31T22:12:00.000Z,6.40
2022-08-31T22:15:38.179Z,7.10
2022-08-31T22:19:19.233Z,6.50
2022-08-31T22:22:56.572Z,6.50
2022-08-31T22:26:38.336Z,6.50
2022-08-31T22:30:17.386Z,6.10
2022-08-31T22:33:54.727Z,6.50
2022-08-31T22:37:32.898Z,8.20
2022-08-31T22:41:12.195Z,5.70
2022-08-31T22:44:50.577Z,6.30
2022-08-31T22:48:28.245Z,6.30
2022-08-31T22:52:05.591Z,6.60
2022-08-31T22:55:43.141Z,5.90
2022-08-31T22:59:24.515Z,6.20
2022-08-31T23:03:01.754Z,6.00
2022-08-31T23:06:40.046Z,6.10
2022-08-31T23:10:19.847Z,6.70
2022-08-31T23:13:58.635Z,6.20
2022-08-31T23:17:36.701Z,6.10
2022-08-31T23:21:14.674Z,6.50
2022-08-31T23:24:52.639Z,5.30
2022-08-31T23:28:29.894Z,5.50
2022-08-31T23:32:09.408Z,6.50
2022-08-31T23:35:47.264Z,6.40
2022-08-31T23:39:25.490Z,5.30
2022-08-31T23:43:03.351Z,5.80
2022-08-31T23:46:43.051Z,5.60
2022-08-31T23:50:20.778Z,5.00
2022-08-31T23:53:57.964Z,5.80
2022-08-31T23:57:37.063Z,5.50
